sensor_id;sensor_type;location;lat;lon;timestamp;temperature;humidity
69082;DHT22;56184;51.986;5.760;2022-10-16T00:00:39;12.00;99.90
69082;DHT22;56184;51.986;5.760;2022-10-16T00:03:05;12.00;99.90
69082;DHT22;56184;51.986;5.760;2022-10-16T00:05:31;11.90;99.90
69082;DHT22;56184;51.986;5.760;2022-10-16T00:07:56;11.90;99.90
69082;DHT22;56184;51.986;5.760;2022-10-16T00:10:23;11.90;99.70
69082;DHT22;56184;51.986;5.760;2022-10-16T00:12:49;11.90;99.90
69082;DHT22;56184;51.986;5.760;2022-10-16T00:15:19;11.90;99.90
69082;DHT22;56184;51.986;5.760;2022-10-16T00:17:44;11.90;99.60
69082;DHT22;56184;51.986;5.760;2022-10-16T00:20:10;11.90;99.90
69082;DHT22;56184;51.986;5.760;2022-10-16T00:22:36;11.90;99.90
69082;DHT22;56184;51.986;5.760;2022-10-16T00:25:03;11.90;99.90
69082;DHT22;56184;51.986;5.760;2022-10-16T00:27:28;12.00;99.90
69082;DHT22;56184;51.986;5.760;2022-10-16T00:29:55;12.00;99.90
69082;DHT22;56184;51.986;5.760;2022-10-16T00:32:21;12.00;99.80
69082;DHT22;56184;51.986;5.760;2022-10-16T00:34:46;11.90;99.90
69082;DHT22;56184;51.986;5.760;2022-10-16T00:37:12;11.90;99.90
69082;DHT22;56184;51.986;5.760;2022-10-16T00:39:38;11.90;99.90
69082;DHT22;56184;51.986;5.760;2022-10-16T00:42:04;11.90;99.90
69082;DHT22;56184;51.986;5.760;2022-10-16T00:44:50;11.90;99.90
69082;DHT22;56184;51.986;5.760;2022-10-16T00:47:23;11.80;99.90
69082;DHT22;56184;51.986;5.760;2022-10-16T00:49:50;11.90;99.90
69082;DHT22;56184;51.986;5.760;2022-10-16T00:52:16;11.90;99.90
69082;DHT22;56184;51.986;5.760;2022-10-16T00:54:42;11.90;99.90
69082;DHT22;56184;51.986;5.760;2022-10-16T00:57:08;11.80;99.90
69082;DHT22;56184;51.986;5.760;2022-10-16T00:59:36;11.80;99.90
69082;DHT22;56184;51.986;5.760;2022-10-16T01:02:02;11.80;99.90
69082;DHT22;56184;51.986;5.760;2022-10-16T01:04:30;11.80;99.90
69082;DHT22;56184;51.986;5.760;2022-10-16T01:12:36;11.80;99.90
69082;DHT22;56184;51.986;5.760;2022-10-16T01:15:06;11.80;99.90
69082;DHT22;56184;51.986;5.760;2022-10-16T01:17:35;11.80;99.90
69082;DHT22;56184;51.986;5.760;2022-10-16T01:22:48;11.80;99.90
69082;DHT22;56184;51.986;5.760;2022-10-16T01:25:52;11.90;99.90
69082;DHT22;56184;51.986;5.760;2022-10-16T01:28:08;11.90;99.90
69082;DHT22;56184;51.986;5.760;2022-10-16T01:30:34;11.90;99.90
69082;DHT22;56184;51.986;5.760;2022-10-16T01:33:17;11.90;99.90
69082;DHT22;56184;51.986;5.760;2022-10-16T01:35:46;12.00;99.90
69082;DHT22;56184;51.986;5.760;2022-10-16T01:38:17;11.90;99.90
69082;DHT22;56184;51.986;5.760;2022-10-16T01:40:51;12.10;99.90
69082;DHT22;56184;51.986;5.760;2022-10-16T01:43:22;12.10;99.90
69082;DHT22;56184;51.986;5.760;2022-10-16T01:45:49;12.10;99.90
69082;DHT22;56184;51.986;5.760;2022-10-16T01:48:16;12.10;99.90
69082;DHT22;56184;51.986;5.760;2022-10-16T01:50:43;12.10;99.90
69082;DHT22;56184;51.986;5.760;2022-10-16T01:53:10;12.10;99.90
69082;DHT22;56184;51.986;5.760;2022-10-16T01:55:38;12.10;99.90
69082;DHT22;56184;51.986;5.760;2022-10-16T01:58:05;12.20;99.90
69082;DHT22;56184;51.986;5.760;2022-10-16T02:00:32;12.20;99.90
69082;DHT22;56184;51.986;5.760;2022-10-16T02:02:58;12.20;99.90
69082;DHT22;56184;51.986;5.760;2022-10-16T02:05:26;12.20;99.90
69082;DHT22;56184;51.986;5.760;2022-10-16T02:07:53;12.20;99.90
69082;DHT22;56184;51.986;5.760;2022-10-16T02:10:19;12.30;99.90
69082;DHT22;56184;51.986;5.760;2022-10-16T02:12:47;12.30;99.90
69082;DHT22;56184;51.986;5.760;2022-10-16T02:15:14;12.40;99.90
69082;DHT22;56184;51.986;5.760;2022-10-16T02:17:40;12.30;99.90
69082;DHT22;56184;51.986;5.760;2022-10-16T02:20:10;12.30;99.90
69082;DHT22;56184;51.986;5.760;2022-10-16T02:22:38;12.20;99.90
69082;DHT22;56184;51.986;5.760;2022-10-16T02:25:06;12.30;99.90
69082;DHT22;56184;51.986;5.760;2022-10-16T02:30:37;12.40;99.90
69082;DHT22;56184;51.986;5.760;2022-10-16T02:33:05;12.30;99.90
69082;DHT22;56184;51.986;5.760;2022-10-16T02:35:32;12.30;99.90
69082;DHT22;56184;51.986;5.760;2022-10-16T02:37:58;12.40;99.90
69082;DHT22;56184;51.986;5.760;2022-10-16T02:40:24;12.50;99.90
69082;DHT22;56184;51.986;5.760;2022-10-16T02:42:51;12.40;99.90
69082;DHT22;56184;51.986;5.760;2022-10-16T02:45:17;12.40;99.90
69082;DHT22;56184;51.986;5.760;2022-10-16T02:47:42;12.40;99.90
69082;DHT22;56184;51.986;5.760;2022-10-16T02:50:08;12.50;99.90
69082;DHT22;56184;51.986;5.760;2022-10-16T02:52:33;12.40;99.90
69082;DHT22;56184;51.986;5.760;2022-10-16T02:54:59;12.30;99.90
69082;DHT22;56184;51.986;5.760;2022-10-16T02:57:24;12.40;99.90
69082;DHT22;56184;51.986;5.760;2022-10-16T02:59:50;12.30;99.90
69082;DHT22;56184;51.986;5.760;2022-10-16T03:02:15;12.30;99.90
69082;DHT22;56184;51.986;5.760;2022-10-16T03:04:41;12.30;99.90
69082;DHT22;56184;51.986;5.760;2022-10-16T03:07:06;12.40;99.90
69082;DHT22;56184;51.986;5.760;2022-10-16T03:09:32;12.50;99.90
69082;DHT22;56184;51.986;5.760;2022-10-16T03:11:58;12.50;99.90
69082;DHT22;56184;51.986;5.760;2022-10-16T03:14:24;12.40;99.90
69082;DHT22;56184;51.986;5.760;2022-10-16T03:16:49;12.40;99.90
69082;DHT22;56184;51.986;5.760;2022-10-16T03:19:18;12.40;99.90
69082;DHT22;56184;51.986;5.760;2022-10-16T03:21:43;12.30;99.90
69082;DHT22;56184;51.986;5.760;2022-10-16T03:24:09;12.30;99.90
69082;DHT22;56184;51.986;5.760;2022-10-16T03:26:35;12.20;99.90
69082;DHT22;56184;51.986;5.760;2022-10-16T03:29:00;12.30;99.90
69082;DHT22;56184;51.986;5.760;2022-10-16T03:31:27;12.20;99.90
69082;DHT22;56184;51.986;5.760;2022-10-16T03:33:53;12.20;99.90
69082;DHT22;56184;51.986;5.760;2022-10-16T03:36:31;12.30;99.90
69082;DHT22;56184;51.986;5.760;2022-10-16T03:38:56;12.20;99.90
69082;DHT22;56184;51.986;5.760;2022-10-16T03:41:22;12.20;99.90
69082;DHT22;56184;51.986;5.760;2022-10-16T03:43:48;12.20;99.90
69082;DHT22;56184;51.986;5.760;2022-10-16T03:46:13;12.20;99.90
69082;DHT22;56184;51.986;5.760;2022-10-16T03:48:39;12.30;99.90
69082;DHT22;56184;51.986;5.760;2022-10-16T03:51:05;12.30;99.90
69082;DHT22;56184;51.986;5.760;2022-10-16T03:53:31;12.20;99.90
69082;DHT22;56184;51.986;5.760;2022-10-16T03:55:56;12.20;99.90
69082;DHT22;56184;51.986;5.760;2022-10-16T03:58:22;12.20;99.90
69082;DHT22;56184;51.986;5.760;2022-10-16T04:00:47;12.20;99.90
69082;DHT22;56184;51.986;5.760;2022-10-16T04:03:13;12.20;99.90
69082;DHT22;56184;51.986;5.760;2022-10-16T04:05:39;12.20;99.90
69082;DHT22;56184;51.986;5.760;2022-10-16T04:08:05;12.20;99.90
69082;DHT22;56184;51.986;5.760;2022-10-16T04:10:31;12.20;99.90
69082;DHT22;56184;51.986;5.760;2022-10-16T04:12:56;12.20;99.90
69082;DHT22;56184;51.986;5.760;2022-10-16T04:15:22;12.30;99.90
69082;DHT22;56184;51.986;5.760;2022-10-16T04:17:48;12.30;99.90
69082;DHT22;56184;51.986;5.760;2022-10-16T04:20:13;12.30;99.90
69082;DHT22;56184;51.986;5.760;2022-10-16T04:22:39;12.30;99.90
69082;DHT22;56184;51.986;5.760;2022-10-16T04:25:05;12.40;99.90
69082;DHT22;56184;51.986;5.760;2022-10-16T04:27:30;12.30;99.90
69082;DHT22;56184;51.986;5.760;2022-10-16T04:29:58;12.30;99.90
69082;DHT22;56184;51.986;5.760;2022-10-16T04:32:24;12.30;99.90
69082;DHT22;56184;51.986;5.760;2022-10-16T04:34:51;12.40;99.90
69082;DHT22;56184;51.986;5.760;2022-10-16T04:37:19;12.30;99.50
69082;DHT22;56184;51.986;5.760;2022-10-16T04:39:48;12.30;99.90
69082;DHT22;56184;51.986;5.760;2022-10-16T04:42:13;12.30;99.90
69082;DHT22;56184;51.986;5.760;2022-10-16T04:44:39;12.40;99.90
69082;DHT22;56184;51.986;5.760;2022-10-16T04:47:04;12.40;99.90
69082;DHT22;56184;51.986;5.760;2022-10-16T04:49:30;12.30;99.90
69082;DHT22;56184;51.986;5.760;2022-10-16T04:51:56;12.30;99.90
69082;DHT22;56184;51.986;5.760;2022-10-16T04:54:21;12.30;99.90
69082;DHT22;56184;51.986;5.760;2022-10-16T04:56:48;12.30;99.90
69082;DHT22;56184;51.986;5.760;2022-10-16T04:59:16;12.20;99.90
69082;DHT22;56184;51.986;5.760;2022-10-16T05:01:43;12.30;99.90
69082;DHT22;56184;51.986;5.760;2022-10-16T05:04:09;12.20;99.90
69082;DHT22;56184;51.986;5.760;2022-10-16T05:06:35;12.20;99.90
69082;DHT22;56184;51.986;5.760;2022-10-16T05:09:01;12.10;99.90
69082;DHT22;56184;51.986;5.760;2022-10-16T05:11:26;12.10;99.90
69082;DHT22;56184;51.986;5.760;2022-10-16T05:13:52;12.10;99.90
69082;DHT22;56184;51.986;5.760;2022-10-16T05:16:17;12.00;99.90
69082;DHT22;56184;51.986;5.760;2022-10-16T05:18:43;12.00;99.90
69082;DHT22;56184;51.986;5.760;2022-10-16T05:21:08;12.10;99.90
69082;DHT22;56184;51.986;5.760;2022-10-16T05:23:34;12.00;99.90
69082;DHT22;56184;51.986;5.760;2022-10-16T05:26:08;12.00;99.90
69082;DHT22;56184;51.986;5.760;2022-10-16T05:28:34;11.90;99.90
69082;DHT22;56184;51.986;5.760;2022-10-16T05:31:03;11.90;99.90
69082;DHT22;56184;51.986;5.760;2022-10-16T05:33:29;11.90;99.90
69082;DHT22;56184;51.986;5.760;2022-10-16T05:35:54;11.80;99.90
69082;DHT22;56184;51.986;5.760;2022-10-16T05:38:20;11.90;99.90
69082;DHT22;56184;51.986;5.760;2022-10-16T05:40:52;11.80;99.90
69082;DHT22;56184;51.986;5.760;2022-10-16T05:43:18;11.80;99.90
69082;DHT22;56184;51.986;5.760;2022-10-16T05:45:43;11.80;99.90
69082;DHT22;56184;51.986;5.760;2022-10-16T05:48:09;11.80;99.90
69082;DHT22;56184;51.986;5.760;2022-10-16T05:50:34;11.80;99.90
69082;DHT22;56184;51.986;5.760;2022-10-16T05:53:00;11.70;99.90
69082;DHT22;56184;51.986;5.760;2022-10-16T05:55:25;11.70;99.90
69082;DHT22;56184;51.986;5.760;2022-10-16T05:57:53;11.70;99.90
69082;DHT22;56184;51.986;5.760;2022-10-16T06:00:19;11.70;99.90
69082;DHT22;56184;51.986;5.760;2022-10-16T06:02:44;11.70;99.90
69082;DHT22;56184;51.986;5.760;2022-10-16T06:05:10;11.60;99.90
69082;DHT22;56184;51.986;5.760;2022-10-16T06:07:36;11.60;99.90
69082;DHT22;56184;51.986;5.760;2022-10-16T06:10:01;11.60;99.90
69082;DHT22;56184;51.986;5.760;2022-10-16T06:12:28;11.60;99.90
69082;DHT22;56184;51.986;5.760;2022-10-16T06:14:53;11.70;99.90
69082;DHT22;56184;51.986;5.760;2022-10-16T06:17:29;11.70;99.90
69082;DHT22;56184;51.986;5.760;2022-10-16T06:20:00;11.80;99.90
69082;DHT22;56184;51.986;5.760;2022-10-16T06:22:25;11.80;99.90
69082;DHT22;56184;51.986;5.760;2022-10-16T06:24:51;11.80;99.90
69082;DHT22;56184;51.986;5.760;2022-10-16T06:27:16;11.90;99.90
69082;DHT22;56184;51.986;5.760;2022-10-16T06:29:47;11.90;99.90
69082;DHT22;56184;51.986;5.760;2022-10-16T06:32:13;12.00;99.90
69082;DHT22;56184;51.986;5.760;2022-10-16T06:34:42;12.00;99.90
69082;DHT22;56184;51.986;5.760;2022-10-16T06:37:24;12.10;99.90
69082;DHT22;56184;51.986;5.760;2022-10-16T06:39:50;12.10;99.90
69082;DHT22;56184;51.986;5.760;2022-10-16T06:42:17;12.20;99.90
69082;DHT22;56184;51.986;5.760;2022-10-16T06:44:43;12.30;99.90
69082;DHT22;56184;51.986;5.760;2022-10-16T06:47:08;12.30;99.90
69082;DHT22;56184;51.986;5.760;2022-10-16T06:49:34;12.30;99.90
69082;DHT22;56184;51.986;5.760;2022-10-16T06:52:00;12.40;99.90
69082;DHT22;56184;51.986;5.760;2022-10-16T06:54:26;12.40;99.90
69082;DHT22;56184;51.986;5.760;2022-10-16T06:56:52;12.50;99.90
69082;DHT22;56184;51.986;5.760;2022-10-16T06:59:22;12.50;99.90
69082;DHT22;56184;51.986;5.760;2022-10-16T07:01:50;12.60;99.90
69082;DHT22;56184;51.986;5.760;2022-10-16T07:04:15;12.60;99.90
69082;DHT22;56184;51.986;5.760;2022-10-16T07:06:41;12.60;99.90
69082;DHT22;56184;51.986;5.760;2022-10-16T07:09:08;12.70;99.90
69082;DHT22;56184;51.986;5.760;2022-10-16T07:11:37;12.80;99.90
69082;DHT22;56184;51.986;5.760;2022-10-16T07:14:25;12.80;99.90
69082;DHT22;56184;51.986;5.760;2022-10-16T07:16:50;12.90;99.90
69082;DHT22;56184;51.986;5.760;2022-10-16T07:19:18;13.00;99.90
69082;DHT22;56184;51.986;5.760;2022-10-16T07:22:05;13.10;99.90
69082;DHT22;56184;51.986;5.760;2022-10-16T07:24:30;13.10;99.90
69082;DHT22;56184;51.986;5.760;2022-10-16T07:26:56;13.20;99.90
69082;DHT22;56184;51.986;5.760;2022-10-16T07:29:22;13.20;99.90
69082;DHT22;56184;51.986;5.760;2022-10-16T07:31:50;13.30;99.90
69082;DHT22;56184;51.986;5.760;2022-10-16T07:34:23;13.40;99.90
69082;DHT22;56184;51.986;5.760;2022-10-16T07:36:53;13.40;99.70
69082;DHT22;56184;51.986;5.760;2022-10-16T07:42:13;13.40;99.90
69082;DHT22;56184;51.986;5.760;2022-10-16T07:44:39;13.50;99.50
69082;DHT22;56184;51.986;5.760;2022-10-16T07:47:07;13.60;99.90
69082;DHT22;56184;51.986;5.760;2022-10-16T07:49:34;13.70;97.80
69082;DHT22;56184;51.986;5.760;2022-10-16T07:52:06;13.80;99.30
69082;DHT22;56184;51.986;5.760;2022-10-16T07:54:56;13.80;98.90
69082;DHT22;56184;51.986;5.760;2022-10-16T07:57:47;13.80;99.60
69082;DHT22;56184;51.986;5.760;2022-10-16T08:00:20;13.90;99.80
69082;DHT22;56184;51.986;5.760;2022-10-16T08:03:01;14.00;99.00
69082;DHT22;56184;51.986;5.760;2022-10-16T08:05:37;14.10;98.00
69082;DHT22;56184;51.986;5.760;2022-10-16T08:08:30;14.10;98.50
69082;DHT22;56184;51.986;5.760;2022-10-16T08:11:24;14.20;99.00
69082;DHT22;56184;51.986;5.760;2022-10-16T08:13:53;14.30;98.60
69082;DHT22;56184;51.986;5.760;2022-10-16T08:16:54;14.40;97.70
69082;DHT22;56184;51.986;5.760;2022-10-16T08:19:23;14.40;97.70
69082;DHT22;56184;51.986;5.760;2022-10-16T08:22:01;14.50;98.00
69082;DHT22;56184;51.986;5.760;2022-10-16T08:24:27;14.40;98.40
69082;DHT22;56184;51.986;5.760;2022-10-16T08:26:56;14.40;97.60
69082;DHT22;56184;51.986;5.760;2022-10-16T08:29:34;14.40;96.70
69082;DHT22;56184;51.986;5.760;2022-10-16T08:32:05;14.30;96.60
69082;DHT22;56184;51.986;5.760;2022-10-16T08:34:31;14.40;98.40
69082;DHT22;56184;51.986;5.760;2022-10-16T08:37:09;14.30;98.00
69082;DHT22;56184;51.986;5.760;2022-10-16T08:39:36;14.40;97.60
69082;DHT22;56184;51.986;5.760;2022-10-16T08:47:13;14.30;97.00
69082;DHT22;56184;51.986;5.760;2022-10-16T08:50:02;14.30;97.40
69082;DHT22;56184;51.986;5.760;2022-10-16T08:52:32;14.30;96.50
69082;DHT22;56184;51.986;5.760;2022-10-16T08:54:59;14.30;97.60
69082;DHT22;56184;51.986;5.760;2022-10-16T08:57:37;14.30;95.60
69082;DHT22;56184;51.986;5.760;2022-10-16T09:00:12;14.40;96.70
69082;DHT22;56184;51.986;5.760;2022-10-16T09:10:32;14.50;96.40
69082;DHT22;56184;51.986;5.760;2022-10-16T09:25:45;14.70;95.80
69082;DHT22;56184;51.986;5.760;2022-10-16T09:28:21;14.70;95.40
69082;DHT22;56184;51.986;5.760;2022-10-16T09:30:47;14.70;95.70
69082;DHT22;56184;51.986;5.760;2022-10-16T09:33:15;14.80;95.60
69082;DHT22;56184;51.986;5.760;2022-10-16T09:35:45;14.80;95.50
69082;DHT22;56184;51.986;5.760;2022-10-16T09:38:30;14.90;95.30
69082;DHT22;56184;51.986;5.760;2022-10-16T09:44:00;14.90;95.70
69082;DHT22;56184;51.986;5.760;2022-10-16T09:49:28;15.00;96.00
69082;DHT22;56184;51.986;5.760;2022-10-16T09:52:12;15.10;95.70
69082;DHT22;56184;51.986;5.760;2022-10-16T09:54:52;15.30;95.60
69082;DHT22;56184;51.986;5.760;2022-10-16T09:57:18;15.20;95.40
69082;DHT22;56184;51.986;5.760;2022-10-16T09:59:51;15.30;95.50
69082;DHT22;56184;51.986;5.760;2022-10-16T10:02:23;15.30;95.10
69082;DHT22;56184;51.986;5.760;2022-10-16T10:05:02;15.30;95.00
69082;DHT22;56184;51.986;5.760;2022-10-16T10:10:24;15.30;94.80
69082;DHT22;56184;51.986;5.760;2022-10-16T10:13:03;15.40;94.40
69082;DHT22;56184;51.986;5.760;2022-10-16T10:15:30;15.50;94.40
69082;DHT22;56184;51.986;5.760;2022-10-16T10:20:43;15.80;94.40
69082;DHT22;56184;51.986;5.760;2022-10-16T10:23:22;15.80;94.10
69082;DHT22;56184;51.986;5.760;2022-10-16T10:31:26;16.50;92.40
69082;DHT22;56184;51.986;5.760;2022-10-16T10:47:17;17.40;88.50
69082;DHT22;56184;51.986;5.760;2022-10-16T11:05:52;19.00;81.90
69082;DHT22;56184;51.986;5.760;2022-10-16T11:08:43;18.70;83.20
69082;DHT22;56184;51.986;5.760;2022-10-16T11:19:11;18.40;79.10
69082;DHT22;56184;51.986;5.760;2022-10-16T11:21:51;18.20;79.20
69082;DHT22;56184;51.986;5.760;2022-10-16T11:24:23;18.20;82.50
69082;DHT22;56184;51.986;5.760;2022-10-16T11:26:50;18.30;82.20
69082;DHT22;56184;51.986;5.760;2022-10-16T11:29:19;18.40;81.50
69082;DHT22;56184;51.986;5.760;2022-10-16T11:31:47;18.40;79.80
69082;DHT22;56184;51.986;5.760;2022-10-16T11:36:53;18.60;78.60
69082;DHT22;56184;51.986;5.760;2022-10-16T11:44:51;19.80;74.70
69082;DHT22;56184;51.986;5.760;2022-10-16T11:55:41;22.70;63.30
69082;DHT22;56184;51.986;5.760;2022-10-16T12:03:40;21.40;70.10
69082;DHT22;56184;51.986;5.760;2022-10-16T12:08:40;21.00;72.10
69082;DHT22;56184;51.986;5.760;2022-10-16T12:45:42;19.30;71.10
69082;DHT22;56184;51.986;5.760;2022-10-16T12:48:18;19.50;69.50
69082;DHT22;56184;51.986;5.760;2022-10-16T12:50:54;19.60;71.10
69082;DHT22;56184;51.986;5.760;2022-10-16T12:58:50;20.20;68.10
69082;DHT22;56184;51.986;5.760;2022-10-16T13:01:40;20.70;67.40
69082;DHT22;56184;51.986;5.760;2022-10-16T13:04:50;21.90;60.70
69082;DHT22;56184;51.986;5.760;2022-10-16T13:07:26;21.80;63.00
69082;DHT22;56184;51.986;5.760;2022-10-16T13:25:38;25.30;53.80
69082;DHT22;56184;51.986;5.760;2022-10-16T13:28:22;25.50;49.20
69082;DHT22;56184;51.986;5.760;2022-10-16T13:30:52;24.80;52.50
69082;DHT22;56184;51.986;5.760;2022-10-16T13:33:20;25.20;52.30
69082;DHT22;56184;51.986;5.760;2022-10-16T13:35:50;25.40;52.80
69082;DHT22;56184;51.986;5.760;2022-10-16T13:38:24;26.00;53.20
69082;DHT22;56184;51.986;5.760;2022-10-16T13:41:01;26.60;51.50
69082;DHT22;56184;51.986;5.760;2022-10-16T13:43:42;27.10;51.70
69082;DHT22;56184;51.986;5.760;2022-10-16T13:46:13;27.80;49.40
69082;DHT22;56184;51.986;5.760;2022-10-16T14:02:31;29.80;44.80
69082;DHT22;56184;51.986;5.760;2022-10-16T14:05:22;28.60;43.00
69082;DHT22;56184;51.986;5.760;2022-10-16T14:07:49;27.80;44.40
69082;DHT22;56184;51.986;5.760;2022-10-16T14:10:33;27.60;46.20
69082;DHT22;56184;51.986;5.760;2022-10-16T14:13:03;27.50;46.10
69082;DHT22;56184;51.986;5.760;2022-10-16T14:15:30;27.70;45.80
69082;DHT22;56184;51.986;5.760;2022-10-16T14:17:56;27.30;46.60
69082;DHT22;56184;51.986;5.760;2022-10-16T14:20:24;26.30;48.00
69082;DHT22;56184;51.986;5.760;2022-10-16T14:22:57;25.60;48.00
69082;DHT22;56184;51.986;5.760;2022-10-16T14:25:25;25.80;47.40
69082;DHT22;56184;51.986;5.760;2022-10-16T14:30:54;26.10;46.80
69082;DHT22;56184;51.986;5.760;2022-10-16T14:33:24;26.20;47.60
69082;DHT22;56184;51.986;5.760;2022-10-16T14:36:10;25.80;48.10
69082;DHT22;56184;51.986;5.760;2022-10-16T14:49:21;24.70;52.60
69082;DHT22;56184;51.986;5.760;2022-10-16T14:51:47;24.30;52.80
69082;DHT22;56184;51.986;5.760;2022-10-16T14:57:17;23.50;53.80
69082;DHT22;56184;51.986;5.760;2022-10-16T14:59:44;23.10;54.20
69082;DHT22;56184;51.986;5.760;2022-10-16T15:02:34;23.00;55.60
69082;DHT22;56184;51.986;5.760;2022-10-16T15:05:12;22.90;57.10
69082;DHT22;56184;51.986;5.760;2022-10-16T15:07:41;22.70;58.20
69082;DHT22;56184;51.986;5.760;2022-10-16T15:10:13;22.60;57.80
69082;DHT22;56184;51.986;5.760;2022-10-16T15:12:54;22.40;60.80
69082;DHT22;56184;51.986;5.760;2022-10-16T15:15:41;22.10;63.40
69082;DHT22;56184;51.986;5.760;2022-10-16T15:18:07;21.90;65.20
69082;DHT22;56184;51.986;5.760;2022-10-16T15:20:47;21.70;65.60
69082;DHT22;56184;51.986;5.760;2022-10-16T15:23:14;21.50;67.80
69082;DHT22;56184;51.986;5.760;2022-10-16T15:31:10;20.90;71.70
69082;DHT22;56184;51.986;5.760;2022-10-16T15:36:06;20.50;71.50
69082;DHT22;56184;51.986;5.760;2022-10-16T15:38:40;20.40;72.00
69082;DHT22;56184;51.986;5.760;2022-10-16T15:41:06;20.30;72.20
69082;DHT22;56184;51.986;5.760;2022-10-16T15:43:41;20.30;72.70
69082;DHT22;56184;51.986;5.760;2022-10-16T15:46:11;20.20;73.90
69082;DHT22;56184;51.986;5.760;2022-10-16T15:48:37;20.00;73.40
69082;DHT22;56184;51.986;5.760;2022-10-16T15:51:12;19.80;73.80
69082;DHT22;56184;51.986;5.760;2022-10-16T15:53:37;19.70;74.70
69082;DHT22;56184;51.986;5.760;2022-10-16T15:56:06;19.50;75.70
69082;DHT22;56184;51.986;5.760;2022-10-16T15:58:32;19.40;75.40
69082;DHT22;56184;51.986;5.760;2022-10-16T16:03:45;19.10;76.50
69082;DHT22;56184;51.986;5.760;2022-10-16T16:06:19;19.00;78.00
69082;DHT22;56184;51.986;5.760;2022-10-16T16:08:45;18.90;78.60
69082;DHT22;56184;51.986;5.760;2022-10-16T16:11:12;18.80;78.30
69082;DHT22;56184;51.986;5.760;2022-10-16T16:13:41;18.60;78.40
69082;DHT22;56184;51.986;5.760;2022-10-16T16:16:08;18.50;79.50
69082;DHT22;56184;51.986;5.760;2022-10-16T16:18:34;18.40;80.60
69082;DHT22;56184;51.986;5.760;2022-10-16T16:21:08;18.30;81.30
69082;DHT22;56184;51.986;5.760;2022-10-16T16:23:34;18.20;82.00
69082;DHT22;56184;51.986;5.760;2022-10-16T16:26:04;18.10;83.00
69082;DHT22;56184;51.986;5.760;2022-10-16T16:28:30;18.00;83.10
69082;DHT22;56184;51.986;5.760;2022-10-16T16:30:56;17.90;83.80
69082;DHT22;56184;51.986;5.760;2022-10-16T16:33:34;17.80;84.10
69082;DHT22;56184;51.986;5.760;2022-10-16T16:36:03;17.80;85.10
69082;DHT22;56184;51.986;5.760;2022-10-16T16:38:31;17.70;85.50
69082;DHT22;56184;51.986;5.760;2022-10-16T16:41:13;17.60;86.50
69082;DHT22;56184;51.986;5.760;2022-10-16T16:43:39;17.50;86.60
69082;DHT22;56184;51.986;5.760;2022-10-16T16:46:20;17.40;87.90
69082;DHT22;56184;51.986;5.760;2022-10-16T16:48:46;17.30;86.80
69082;DHT22;56184;51.986;5.760;2022-10-16T16:51:13;17.20;88.60
69082;DHT22;56184;51.986;5.760;2022-10-16T16:53:51;17.20;88.50
69082;DHT22;56184;51.986;5.760;2022-10-16T16:56:17;17.10;88.60
69082;DHT22;56184;51.986;5.760;2022-10-16T16:58:58;17.00;89.20
69082;DHT22;56184;51.986;5.760;2022-10-16T17:01:27;17.00;90.20
69082;DHT22;56184;51.986;5.760;2022-10-16T17:03:54;16.90;90.40
69082;DHT22;56184;51.986;5.760;2022-10-16T17:06:32;16.90;90.70
69082;DHT22;56184;51.986;5.760;2022-10-16T17:08:58;16.80;90.90
69082;DHT22;56184;51.986;5.760;2022-10-16T17:11:33;16.80;90.90
69082;DHT22;56184;51.986;5.760;2022-10-16T17:13:59;16.70;90.80
69082;DHT22;56184;51.986;5.760;2022-10-16T17:16:26;16.70;91.00
69082;DHT22;56184;51.986;5.760;2022-10-16T17:18:52;16.60;90.80
69082;DHT22;56184;51.986;5.760;2022-10-16T17:21:18;16.50;91.00
69082;DHT22;56184;51.986;5.760;2022-10-16T17:23:44;16.50;91.30
69082;DHT22;56184;51.986;5.760;2022-10-16T17:26:11;16.40;91.50
69082;DHT22;56184;51.986;5.760;2022-10-16T17:28:37;16.40;91.80
69082;DHT22;56184;51.986;5.760;2022-10-16T17:31:06;16.40;92.00
69082;DHT22;56184;51.986;5.760;2022-10-16T17:33:32;16.30;91.90
69082;DHT22;56184;51.986;5.760;2022-10-16T17:36:17;16.30;92.00
69082;DHT22;56184;51.986;5.760;2022-10-16T17:38:46;16.20;92.40
69082;DHT22;56184;51.986;5.760;2022-10-16T17:41:14;16.20;92.20
69082;DHT22;56184;51.986;5.760;2022-10-16T17:43:40;16.20;92.30
69082;DHT22;56184;51.986;5.760;2022-10-16T17:46:06;16.10;92.50
69082;DHT22;56184;51.986;5.760;2022-10-16T17:48:36;16.10;92.80
69082;DHT22;56184;51.986;5.760;2022-10-16T17:51:03;16.10;92.90
69082;DHT22;56184;51.986;5.760;2022-10-16T17:53:28;16.00;92.70
69082;DHT22;56184;51.986;5.760;2022-10-16T17:55:54;16.00;92.20
69082;DHT22;56184;51.986;5.760;2022-10-16T17:58:23;16.00;92.70
69082;DHT22;56184;51.986;5.760;2022-10-16T18:03:35;15.90;93.10
69082;DHT22;56184;51.986;5.760;2022-10-16T18:06:00;15.80;93.20
69082;DHT22;56184;51.986;5.760;2022-10-16T18:08:37;15.80;93.20
69082;DHT22;56184;51.986;5.760;2022-10-16T18:11:06;15.80;93.40
69082;DHT22;56184;51.986;5.760;2022-10-16T18:21:25;15.60;93.00
69082;DHT22;56184;51.986;5.760;2022-10-16T18:23:59;15.50;93.40
69082;DHT22;56184;51.986;5.760;2022-10-16T18:26:25;15.50;93.50
69082;DHT22;56184;51.986;5.760;2022-10-16T18:29:04;15.50;93.70
69082;DHT22;56184;51.986;5.760;2022-10-16T18:31:42;15.40;93.40
69082;DHT22;56184;51.986;5.760;2022-10-16T18:34:08;15.50;93.80
69082;DHT22;56184;51.986;5.760;2022-10-16T18:36:34;15.40;94.50
69082;DHT22;56184;51.986;5.760;2022-10-16T18:39:01;15.40;93.90
69082;DHT22;56184;51.986;5.760;2022-10-16T18:41:27;15.40;94.10
69082;DHT22;56184;51.986;5.760;2022-10-16T18:44:02;15.30;94.10
69082;DHT22;56184;51.986;5.760;2022-10-16T18:46:59;15.30;94.50
69082;DHT22;56184;51.986;5.760;2022-10-16T18:49:41;15.30;94.60
69082;DHT22;56184;51.986;5.760;2022-10-16T18:52:08;15.20;94.80
69082;DHT22;56184;51.986;5.760;2022-10-16T18:54:42;15.20;94.70
69082;DHT22;56184;51.986;5.760;2022-10-16T19:12:46;15.20;95.60
69082;DHT22;56184;51.986;5.760;2022-10-16T19:15:27;15.20;95.30
69082;DHT22;56184;51.986;5.760;2022-10-16T19:17:52;15.20;95.50
69082;DHT22;56184;51.986;5.760;2022-10-16T19:20:34;15.20;95.30
69082;DHT22;56184;51.986;5.760;2022-10-16T19:23:08;15.20;95.50
69082;DHT22;56184;51.986;5.760;2022-10-16T19:25:37;15.20;95.10
69082;DHT22;56184;51.986;5.760;2022-10-16T19:28:20;15.20;95.30
69082;DHT22;56184;51.986;5.760;2022-10-16T19:31:03;15.20;95.10
69082;DHT22;56184;51.986;5.760;2022-10-16T19:52:14;15.00;95.70
69082;DHT22;56184;51.986;5.760;2022-10-16T20:05:02;15.00;97.10
69082;DHT22;56184;51.986;5.760;2022-10-16T20:07:28;15.00;97.00
69082;DHT22;56184;51.986;5.760;2022-10-16T20:10:02;15.00;97.10
69082;DHT22;56184;51.986;5.760;2022-10-16T20:12:28;15.00;97.30
69082;DHT22;56184;51.986;5.760;2022-10-16T20:14:53;15.00;97.10
69082;DHT22;56184;51.986;5.760;2022-10-16T20:17:19;15.00;97.20